Time;durP1;ratioP1;P1;durP2;ratioP2;P2;SDS_P1;SDS_P2;PMS_P1;PMS_P2;Temp;Humidity;BMP_temperature;BMP_pressure;BME280_temperature;BME280_humidity;BME280_pressure;Samples;Min_cycle;Max_cycle;Signal;HPM_P1;HPM_P2
2022/05/30 00:01:42;;;;;;;1.80;0.63;;;;;;;;;;4993292;28;20092;-82
2022/05/30 00:04:07;;;;;;;1.20;0.52;;;;;;;;;;4987299;28;20097;-82
2022/05/30 00:06:33;;;;;;;1.23;0.60;;;;;;;;;;4992259;28;20096;-83
2022/05/30 00:08:58;;;;;;;1.52;0.70;;;;;;;;;;4980931;28;20095;-82
2022/05/30 00:11:25;;;;;;;1.38;0.75;;;;;;;;;;4987092;28;20072;-82
2022/05/30 00:13:50;;;;;;;1.48;0.73;;;;;;;;;;4979900;28;20042;-83
2022/05/30 00:16:18;;;;;;;1.98;0.70;;;;;;;;;;4982259;28;20413;-83
2022/05/30 00:18:43;;;;;;;;;;;;;;;;;;4981654;28;20116;-82
2022/05/30 00:21:09;;;;;;;2.15;0.93;;;;;;;;;;4982488;28;20416;-82
2022/05/30 00:23:34;;;;;;;1.75;0.70;;;;;;;;;;4993019;28;20121;-83
2022/05/30 00:25:59;;;;;;;1.63;0.70;;;;;;;;;;4986052;28;20044;-83
2022/05/30 00:28:25;;;;;;;1.52;0.73;;;;;;;;;;4973526;28;20498;-83
2022/05/30 00:30:51;;;;;;;1.90;0.70;;;;;;;;;;4976634;28;20096;-83
2022/05/30 00:33:17;;;;;;;1.55;0.80;;;;;;;;;;4971599;28;20113;-83
2022/05/30 00:35:43;;;;;;;1.83;0.70;;;;;;;;;;4965412;28;20117;-84
2022/05/30 00:38:08;;;;;;;2.15;0.90;;;;;;;;;;4979250;28;20133;-84
2022/05/30 00:40:35;;;;;;;1.63;0.77;;;;;;;;;;4979152;28;20169;-83
2022/05/30 00:43:37;;;;;;;1.30;0.70;;;;;;;;;;4980331;28;20145;-83
2022/05/30 00:46:07;;;;;;;2.22;0.60;;;;;;;;;;4966057;28;20956;-83
2022/05/30 00:48:40;;;;;;;1.52;0.70;;;;;;;;;;4977606;28;20038;-83
2022/05/30 00:51:10;;;;;;;1.42;0.70;;;;;;;;;;4980526;28;20121;-82
2022/05/30 00:53:36;;;;;;;1.20;0.63;;;;;;;;;;4991540;28;20038;-83
2022/05/30 00:56:04;;;;;;;1.77;0.80;;;;;;;;;;4978088;28;20283;-83
2022/05/30 00:58:32;;;;;;;3.72;0.90;;;;;;;;;;5001893;28;20049;-82
2022/05/30 01:00:58;;;;;;;1.90;0.80;;;;;;;;;;4996052;28;20112;-84
2022/05/30 01:08:53;;;;;;;1.80;0.90;;;;;;;;;;4991974;28;20072;-83
2022/05/30 01:11:18;;;;;;;2.10;1.10;;;;;;;;;;4983991;28;20048;-82
2022/05/30 01:13:43;;;;;;;1.42;0.75;;;;;;;;;;4979721;28;20061;-83
2022/05/30 01:16:10;;;;;;;2.63;0.93;;;;;;;;;;4975052;28;20485;-83
2022/05/30 01:18:46;;;;;;;2.03;0.85;;;;;;;;;;4975477;28;20066;-83
2022/05/30 01:21:34;;;;;;;2.47;1.20;;;;;;;;;;4975826;28;20037;-84
2022/05/30 01:24:14;;;;;;;1.60;0.88;;;;;;;;;;4983349;28;20126;-83
2022/05/30 01:26:48;;;;;;;1.58;0.80;;;;;;;;;;4985457;28;20062;-83
2022/05/30 01:29:21;;;;;;;1.63;0.75;;;;;;;;;;5001913;28;20030;-83
2022/05/30 01:31:46;;;;;;;1.75;0.90;;;;;;;;;;4967179;28;20035;-84
2022/05/30 01:34:11;;;;;;;1.52;0.88;;;;;;;;;;5001395;28;20421;-84
2022/05/30 01:36:37;;;;;;;2.20;0.93;;;;;;;;;;4995897;28;20107;-83
2022/05/30 01:39:03;;;;;;;1.73;0.80;;;;;;;;;;4985531;28;20512;-83
2022/05/30 01:41:28;;;;;;;1.77;0.93;;;;;;;;;;4991257;28;20160;-82
2022/05/30 01:43:56;;;;;;;2.08;1.08;;;;;;;;;;4977854;28;20049;-83
2022/05/30 01:46:23;;;;;;;3.00;1.15;;;;;;;;;;4993972;28;20555;-83
2022/05/30 01:48:49;;;;;;;2.47;1.05;;;;;;;;;;4980849;28;20608;-83
2022/05/30 01:51:17;;;;;;;2.00;1.10;;;;;;;;;;4970517;28;20050;-84
2022/05/30 01:53:43;;;;;;;7.43;3.47;;;;;;;;;;4974641;28;20061;-82
2022/05/30 01:56:08;;;;;;;1.95;0.95;;;;;;;;;;4980924;28;20026;-82
2022/05/30 01:58:33;;;;;;;1.63;0.80;;;;;;;;;;4980425;28;20064;-82
2022/05/30 02:01:04;;;;;;;1.98;1.00;;;;;;;;;;4992521;28;20038;-82
2022/05/30 02:03:30;;;;;;;3.60;1.00;;;;;;;;;;4986233;28;20092;-81
2022/05/30 02:05:56;;;;;;;1.83;0.90;;;;;;;;;;4990417;28;20034;-82
2022/05/30 02:08:21;;;;;;;2.63;1.00;;;;;;;;;;4979533;28;20092;-82
2022/05/30 02:10:48;;;;;;;2.30;1.02;;;;;;;;;;4993345;28;20473;-82
2022/05/30 02:13:14;;;;;;;4.60;1.20;;;;;;;;;;4981588;28;20042;-81
2022/05/30 02:18:23;;;;;;;2.45;1.15;;;;;;;;;;4977684;28;20045;-82
2022/05/30 02:20:49;;;;;;;2.90;1.23;;;;;;;;;;4973392;28;20038;-81
2022/05/30 02:23:16;;;;;;;4.13;1.38;;;;;;;;;;4982443;28;20482;-82
2022/05/30 02:25:41;;;;;;;2.22;0.90;;;;;;;;;;4977809;28;20121;-80
2022/05/30 02:28:06;;;;;;;2.20;1.20;;;;;;;;;;4993232;28;20146;-81
2022/05/30 02:30:32;;;;;;;2.63;1.20;;;;;;;;;;4987423;28;20040;-82
2022/05/30 02:36:38;;;;;;;2.75;1.13;;;;;;;;;;4987545;28;20042;-81
2022/05/30 02:38:26;;;;;;;2.65;1.13;;;;;;;;;;4992060;28;20204;-81
2022/05/30 02:40:51;;;;;;;4.22;1.30;;;;;;;;;;4996958;28;20549;-80
2022/05/30 02:43:17;;;;;;;2.25;1.20;;;;;;;;;;5000192;28;20034;-81
2022/05/30 02:45:42;;;;;;;2.50;1.15;;;;;;;;;;4996914;28;20038;-80
2022/05/30 02:48:08;;;;;;;2.25;1.13;;;;;;;;;;4994791;28;20089;-81
2022/05/30 02:50:33;;;;;;;2.55;1.02;;;;;;;;;;4982242;28;20046;-81
2022/05/30 02:52:59;;;;;;;2.58;1.25;;;;;;;;;;4984795;28;20034;-81
2022/05/30 02:55:24;;;;;;;2.85;1.40;;;;;;;;;;4983330;28;20101;-80
2022/05/30 02:57:50;;;;;;;4.68;1.73;;;;;;;;;;4997214;28;20424;-81
2022/05/30 03:00:16;;;;;;;3.40;1.48;;;;;;;;;;4966073;28;20085;-81
2022/05/30 03:02:41;;;;;;;2.30;1.00;;;;;;;;;;4998161;28;20038;-81
2022/05/30 03:05:07;;;;;;;3.67;1.48;;;;;;;;;;4983678;28;20477;-81
2022/05/30 03:07:33;;;;;;;4.15;1.50;;;;;;;;;;4994218;28;20045;-82
2022/05/30 03:09:59;;;;;;;3.40;1.70;;;;;;;;;;4981689;28;20045;-82
2022/05/30 03:12:24;;;;;;;3.45;1.67;;;;;;;;;;4981052;28;20033;-80
2022/05/30 03:14:50;;;;;;;4.53;1.55;;;;;;;;;;4978504;28;20069;-81
2022/05/30 03:17:15;;;;;;;6.28;1.73;;;;;;;;;;4997289;28;20042;-82
2022/05/30 03:19:41;;;;;;;4.78;1.58;;;;;;;;;;4986787;28;20468;-82
2022/05/30 03:22:06;;;;;;;2.83;1.48;;;;;;;;;;4997775;28;20397;-82
2022/05/30 03:24:31;;;;;;;2.90;1.58;;;;;;;;;;4992658;28;20034;-81
2022/05/30 03:26:57;;;;;;;3.35;1.65;;;;;;;;;;4987848;28;20042;-83
2022/05/30 03:29:23;;;;;;;7.05;1.85;;;;;;;;;;4995606;28;20511;-81
2022/05/30 03:31:49;;;;;;;4.13;1.67;;;;;;;;;;4994842;28;20034;-81
2022/05/30 03:34:14;;;;;;;3.97;1.58;;;;;;;;;;4992860;28;20060;-80
2022/05/30 03:36:41;;;;;;;4.45;1.73;;;;;;;;;;4975197;28;20045;-81
2022/05/30 03:39:06;;;;;;;2.97;1.52;;;;;;;;;;4975300;28;20434;-80
2022/05/30 03:41:32;;;;;;;5.30;1.52;;;;;;;;;;4981442;28;20035;-80
2022/05/30 03:44:00;;;;;;;3.67;1.33;;;;;;;;;;4985417;28;20034;-81
2022/05/30 03:46:28;;;;;;;3.03;1.60;;;;;;;;;;4989756;28;20125;-80
2022/05/30 03:48:53;;;;;;;3.58;1.50;;;;;;;;;;4996233;28;20504;-81
2022/05/30 03:51:18;;;;;;;3.83;1.52;;;;;;;;;;4981753;28;20034;-86
2022/05/30 03:53:44;;;;;;;3.15;1.67;;;;;;;;;;4981053;28;20049;-86
2022/05/30 03:56:11;;;;;;;4.70;2.03;;;;;;;;;;4980619;28;20044;-87
2022/05/30 03:58:37;;;;;;;3.53;1.42;;;;;;;;;;4981144;28;20062;-86
2022/05/30 04:01:05;;;;;;;4.38;1.73;;;;;;;;;;4977320;28;20556;-86
2022/05/30 04:03:30;;;;;;;3.63;1.83;;;;;;;;;;4981428;28;20038;-85
2022/05/30 04:05:55;;;;;;;4.18;2.08;;;;;;;;;;4979085;28;20046;-86
2022/05/30 04:08:21;;;;;;;3.22;1.88;;;;;;;;;;4992308;28;20486;-86
2022/05/30 04:10:47;;;;;;;6.03;1.88;;;;;;;;;;4992875;28;20031;-85
2022/05/30 04:13:12;;;;;;;4.75;1.77;;;;;;;;;;4982487;28;20037;-84
2022/05/30 04:15:37;;;;;;;3.83;1.92;;;;;;;;;;4974850;28;20041;-85
2022/05/30 04:18:04;;;;;;;2.92;1.50;;;;;;;;;;4979122;28;20493;-85
2022/05/30 04:20:29;;;;;;;5.65;1.67;;;;;;;;;;4980379;28;20046;-85
2022/05/30 04:22:55;;;;;;;3.92;1.80;;;;;;;;;;5002432;28;20034;-85
2022/05/30 04:25:23;;;;;;;4.13;1.70;;;;;;;;;;4978586;28;20660;-87
2022/05/30 04:27:48;;;;;;;3.65;2.08;;;;;;;;;;4995747;28;20054;-86
2022/05/30 04:30:13;;;;;;;3.63;1.60;;;;;;;;;;4991734;28;20037;-86
2022/05/30 04:32:39;;;;;;;6.07;2.17;;;;;;;;;;4979773;28;20123;-87
2022/05/30 04:35:06;;;;;;;2.65;1.48;;;;;;;;;;4994571;28;20038;-87
2022/05/30 04:37:32;;;;;;;3.90;1.50;;;;;;;;;;4992704;28;20054;-86
2022/05/30 04:39:57;;;;;;;4.63;1.70;;;;;;;;;;4978563;28;20041;-86
2022/05/30 04:42:25;;;;;;;6.88;1.90;;;;;;;;;;4994997;28;20315;-85
2022/05/30 04:44:50;;;;;;;3.47;1.73;;;;;;;;;;4987052;28;20379;-86
2022/05/30 04:47:16;;;;;;;4.68;2.10;;;;;;;;;;4976841;28;20041;-87
2022/05/30 04:49:41;;;;;;;8.85;1.80;;;;;;;;;;4986208;28;20057;-85
2022/05/30 04:52:08;;;;;;;4.85;1.60;;;;;;;;;;4976618;28;20030;-80
2022/05/30 04:54:33;;;;;;;5.43;1.88;;;;;;;;;;4999541;28;20042;-80
2022/05/30 04:56:59;;;;;;;3.60;1.60;;;;;;;;;;4982250;28;20531;-81
2022/05/30 04:59:24;;;;;;;5.85;1.52;;;;;;;;;;4980237;28;20394;-81
2022/05/30 05:01:50;;;;;;;4.63;2.20;;;;;;;;;;4996290;28;20118;-78
2022/05/30 05:04:15;;;;;;;3.90;1.63;;;;;;;;;;4981394;28;20030;-80
2022/05/30 05:06:43;;;;;;;6.05;1.95;;;;;;;;;;4985909;28;20505;-80
2022/05/30 05:09:17;;;;;;;;;;;;;;;;;;4985245;28;20031;-84
2022/05/30 05:11:44;;;;;;;5.15;1.85;;;;;;;;;;5000657;28;19941;-79
2022/05/30 05:14:10;;;;;;;3.67;1.40;;;;;;;;;;4988184;28;20109;-79
2022/05/30 05:16:37;;;;;;;3.42;1.80;;;;;;;;;;4988075;28;20138;-78
2022/05/30 05:19:03;;;;;;;3.05;1.40;;;;;;;;;;4999203;28;20165;-79
2022/05/30 05:21:37;;;;;;;3.88;1.75;;;;;;;;;;4999353;28;20050;-80
2022/05/30 05:24:05;;;;;;;6.05;1.88;;;;;;;;;;4996654;28;20056;-79
2022/05/30 05:26:31;;;;;;;3.70;1.75;;;;;;;;;;4987788;28;20367;-80
2022/05/30 05:28:57;;;;;;;6.15;2.05;;;;;;;;;;4985252;28;20045;-80
2022/05/30 05:31:26;;;;;;;3.53;1.70;;;;;;;;;;4985200;28;20042;-86
2022/05/30 05:33:57;;;;;;;3.83;1.40;;;;;;;;;;4985039;28;20465;-86
2022/05/30 05:36:25;;;;;;;3.63;1.58;;;;;;;;;;4991760;28;20115;-86
2022/05/30 05:38:51;;;;;;;5.20;1.67;;;;;;;;;;4987242;28;20110;-85
2022/05/30 05:41:16;;;;;;;4.15;1.50;;;;;;;;;;4988475;28;20038;-88
2022/05/30 05:43:42;;;;;;;2.97;1.52;;;;;;;;;;4958946;28;20058;-86
2022/05/30 05:46:22;;;;;;;4.47;1.20;;;;;;;;;;4977560;28;20038;-86
2022/05/30 05:48:47;;;;;;;7.18;1.77;;;;;;;;;;4973802;28;20034;-89
2022/05/30 05:51:17;;;;;;;2.83;1.50;;;;;;;;;;4967695;28;20052;-88
2022/05/30 05:53:43;;;;;;;3.03;1.52;;;;;;;;;;4979772;28;20053;-89
2022/05/30 05:56:20;;;;;;;5.47;1.50;;;;;;;;;;4984873;28;20026;-83
2022/05/30 05:58:45;;;;;;;3.37;1.63;;;;;;;;;;4992452;28;20040;-80
2022/05/30 06:01:12;;;;;;;2.13;1.10;;;;;;;;;;4993021;28;20648;-84
2022/05/30 06:03:38;;;;;;;3.83;1.42;;;;;;;;;;4992326;28;20049;-83
2022/05/30 06:06:04;;;;;;;4.90;1.50;;;;;;;;;;4975561;28;20078;-83
2022/05/30 06:08:30;;;;;;;5.78;1.60;;;;;;;;;;4975384;28;20041;-81
2022/05/30 06:11:15;;;;;;;2.60;1.40;;;;;;;;;;4990839;28;20040;-83
2022/05/30 06:13:45;;;;;;;4.32;1.63;;;;;;;;;;4971305;28;20053;-82
2022/05/30 06:16:19;;;;;;;3.33;1.20;;;;;;;;;;4983854;28;20049;-82
2022/05/30 06:18:44;;;;;;;6.32;2.25;;;;;;;;;;4995116;28;20497;-81
2022/05/30 06:21:10;;;;;;;9.55;1.35;;;;;;;;;;4985235;28;20030;-82
2022/05/30 06:23:35;;;;;;;3.42;1.50;;;;;;;;;;4994065;28;20034;-82
2022/05/30 06:26:10;;;;;;;5.25;1.52;;;;;;;;;;4987838;28;20048;-82
2022/05/30 06:28:36;;;;;;;4.35;1.30;;;;;;;;;;4996384;28;20062;-83
2022/05/30 06:31:12;;;;;;;3.50;1.30;;;;;;;;;;4988862;28;20486;-83
2022/05/30 06:33:38;;;;;;;2.72;1.02;;;;;;;;;;4989215;28;20486;-83
2022/05/30 06:36:08;;;;;;;2.15;1.05;;;;;;;;;;4971876;28;20045;-83
2022/05/30 06:38:34;;;;;;;4.97;1.42;;;;;;;;;;4983833;28;20054;-83
2022/05/30 06:41:13;;;;;;;3.50;1.75;;;;;;;;;;4994899;28;20080;-83
2022/05/30 06:43:39;;;;;;;2.80;1.13;;;;;;;;;;4984941;28;20120;-82
2022/05/30 06:46:05;;;;;;;5.50;1.52;;;;;;;;;;4980381;28;20553;-82
2022/05/30 06:48:30;;;;;;;5.05;1.30;;;;;;;;;;4993066;28;20038;-82
2022/05/30 06:50:55;;;;;;;4.78;1.52;;;;;;;;;;4994897;28;20128;-82
2022/05/30 06:53:21;;;;;;;3.10;1.25;;;;;;;;;;4981260;28;20505;-85
2022/05/30 06:55:49;;;;;;;5.32;1.42;;;;;;;;;;4982085;28;20066;-82
2022/05/30 06:58:15;;;;;;;4.80;1.27;;;;;;;;;;4981574;28;20576;-84
2022/05/30 07:00:44;;;;;;;3.08;1.10;;;;;;;;;;5004179;28;20050;-83
2022/05/30 07:03:10;;;;;;;4.10;1.80;;;;;;;;;;5002134;28;20030;-83
2022/05/30 07:05:35;;;;;;;3.13;1.30;;;;;;;;;;4995170;28;20049;-83
2022/05/30 07:08:00;;;;;;;7.05;1.20;;;;;;;;;;4972339;28;20045;-84
2022/05/30 07:10:27;;;;;;;6.85;1.38;;;;;;;;;;4981315;28;20548;-83
2022/05/30 07:12:55;;;;;;;3.53;1.35;;;;;;;;;;4983967;28;20081;-78
2022/05/30 07:15:21;;;;;;;5.43;1.27;;;;;;;;;;5004518;28;20477;-79
2022/05/30 07:17:50;;;;;;;3.88;1.38;;;;;;;;;;4998798;28;20034;-78
2022/05/30 07:20:15;;;;;;;6.15;1.35;;;;;;;;;;4999128;28;20045;-79
2022/05/30 07:22:41;;;;;;;4.20;1.20;;;;;;;;;;4997068;28;20088;-79
2022/05/30 07:25:07;;;;;;;4.00;1.40;;;;;;;;;;5000112;28;20044;-79
2022/05/30 07:27:33;;;;;;;6.30;1.40;;;;;;;;;;4987141;28;20190;-79
2022/05/30 07:29:58;;;;;;;5.43;2.08;;;;;;;;;;4963883;28;20060;-79
2022/05/30 07:32:24;;;;;;;2.97;1.50;;;;;;;;;;4994728;28;20022;-80
2022/05/30 07:34:49;;;;;;;4.45;1.73;;;;;;;;;;4990672;28;20042;-81
2022/05/30 07:37:15;;;;;;;4.95;1.60;;;;;;;;;;4977083;28;20108;-79
2022/05/30 07:39:40;;;;;;;3.63;1.45;;;;;;;;;;4965879;28;20528;-80
2022/05/30 07:42:06;;;;;;;2.53;1.08;;;;;;;;;;4995260;28;20034;-80
2022/05/30 07:44:32;;;;;;;3.00;1.55;;;;;;;;;;4981296;28;20378;-80
2022/05/30 07:46:57;;;;;;;6.50;1.85;;;;;;;;;;4986110;28;20030;-81
2022/05/30 07:49:25;;;;;;;2.53;1.10;;;;;;;;;;4996522;28;20044;-80
2022/05/30 07:51:51;;;;;;;4.57;1.42;;;;;;;;;;4979022;28;20038;-80
2022/05/30 07:54:17;;;;;;;2.92;1.25;;;;;;;;;;4978799;28;20038;-80
2022/05/30 07:56:43;;;;;;;5.38;1.30;;;;;;;;;;4988512;28;20429;-81
2022/05/30 07:59:08;;;;;;;2.92;1.38;;;;;;;;;;4999562;28;20038;-80
2022/05/30 08:01:34;;;;;;;3.25;1.23;;;;;;;;;;4987512;28;20383;-81
2022/05/30 08:04:00;;;;;;;7.20;1.25;;;;;;;;;;4978491;28;20030;-81
2022/05/30 08:06:29;;;;;;;2.35;1.02;;;;;;;;;;4995271;28;20034;-82
2022/05/30 08:08:55;;;;;;;3.30;1.25;;;;;;;;;;4982022;28;20041;-81
2022/05/30 08:11:21;;;;;;;4.38;1.38;;;;;;;;;;4993280;28;20328;-82
2022/05/30 08:13:47;;;;;;;3.50;1.20;;;;;;;;;;4987662;28;20505;-81
2022/05/30 08:16:25;;;;;;;3.83;1.40;;;;;;;;;;4994596;28;20038;-80
2022/05/30 08:18:50;;;;;;;4.00;1.20;;;;;;;;;;4968212;28;20043;-82
2022/05/30 08:21:16;;;;;;;3.83;1.30;;;;;;;;;;4984107;28;20520;-82
2022/05/30 08:23:42;;;;;;;4.18;1.27;;;;;;;;;;4980973;28;20045;-83
2022/05/30 08:26:08;;;;;;;1.90;0.85;;;;;;;;;;4986496;28;20038;-81
2022/05/30 08:28:34;;;;;;;6.95;1.00;;;;;;;;;;4979255;28;20035;-83
2022/05/30 08:30:59;;;;;;;3.85;1.33;;;;;;;;;;4998998;28;20046;-82
2022/05/30 08:33:25;;;;;;;5.00;1.48;;;;;;;;;;4992616;28;20042;-81
2022/05/30 08:36:03;;;;;;;3.28;0.95;;;;;;;;;;4982138;28;20394;-81
2022/05/30 08:38:33;;;;;;;2.67;1.10;;;;;;;;;;4995481;28;20572;-83
2022/05/30 08:43:48;;;;;;;1.80;0.95;;;;;;;;;;5000716;28;20089;-82
2022/05/30 08:46:34;;;;;;;2.20;0.90;;;;;;;;;;4979432;28;20034;-82
2022/05/30 08:49:19;;;;;;;4.27;0.77;;;;;;;;;;4973968;28;20082;-80
2022/05/30 08:51:47;;;;;;;3.00;0.90;;;;;;;;;;4981847;28;20280;-81
2022/05/30 08:54:23;;;;;;;2.35;0.75;;;;;;;;;;5011034;28;20042;-80
2022/05/30 08:56:52;;;;;;;2.95;1.10;;;;;;;;;;5002408;28;20034;-82
2022/05/30 08:59:36;;;;;;;2.72;0.77;;;;;;;;;;4956179;28;20505;-82
2022/05/30 09:02:05;;;;;;;3.53;0.70;;;;;;;;;;4990095;28;20037;-82
2022/05/30 09:04:41;;;;;;;7.00;1.25;;;;;;;;;;4981662;28;20034;-82
2022/05/30 09:07:14;;;;;;;1.05;0.45;;;;;;;;;;4975312;28;20043;-82
2022/05/30 09:09:46;;;;;;;1.63;0.63;;;;;;;;;;4992194;28;20112;-81
2022/05/30 09:12:33;;;;;;;2.63;0.50;;;;;;;;;;4995226;28;20567;-82
2022/05/30 09:15:02;;;;;;;1.88;0.40;;;;;;;;;;4977115;28;20045;-83
2022/05/30 09:17:37;;;;;;;2.75;0.88;;;;;;;;;;4978889;28;20029;-84
2022/05/30 09:20:07;;;;;;;0.93;0.30;;;;;;;;;;4987667;28;20053;-88
2022/05/30 09:22:37;;;;;;;1.40;0.45;;;;;;;;;;4990855;28;20034;-83
2022/05/30 09:27:48;;;;;;;2.58;0.55;;;;;;;;;;4994328;28;20089;-83
2022/05/30 09:30:18;;;;;;;3.03;0.60;;;;;;;;;;4981107;28;20493;-82
2022/05/30 09:33:16;;;;;;;1.88;0.50;;;;;;;;;;4984452;28;20037;-84
2022/05/30 09:35:42;;;;;;;3.70;0.57;;;;;;;;;;4974157;28;20042;-84
2022/05/30 09:38:22;;;;;;;3.70;0.60;;;;;;;;;;4977307;28;20042;-82
2022/05/30 09:40:53;;;;;;;3.58;2.03;;;;;;;;;;4993564;28;20038;-83
2022/05/30 09:43:23;;;;;;;2.35;0.65;;;;;;;;;;4971016;28;20030;-85
2022/05/30 09:45:49;;;;;;;1.48;0.40;;;;;;;;;;5000811;28;20382;-84
2022/05/30 09:48:18;;;;;;;2.47;0.75;;;;;;;;;;4989752;28;20037;-82
2022/05/30 09:50:46;;;;;;;1.25;0.43;;;;;;;;;;4979788;28;20069;-84
2022/05/30 09:53:11;;;;;;;2.05;0.60;;;;;;;;;;4992873;28;20039;-81
2022/05/30 09:55:47;;;;;;;3.78;0.55;;;;;;;;;;4992676;28;20041;-83
2022/05/30 09:58:12;;;;;;;1.17;0.38;;;;;;;;;;4994738;28;20048;-82
2022/05/30 10:00:53;;;;;;;1.95;0.40;;;;;;;;;;4981488;28;20034;-83
2022/05/30 10:03:28;;;;;;;1.75;0.60;;;;;;;;;;4995348;28;20466;-81
2022/05/30 10:06:11;;;;;;;1.05;0.40;;;;;;;;;;4991939;28;20030;-81
2022/05/30 10:08:36;;;;;;;3.75;0.50;;;;;;;;;;4976871;28;20048;-82
2022/05/30 10:11:01;;;;;;;2.38;0.63;;;;;;;;;;4991038;28;20042;-83
2022/05/30 10:13:36;;;;;;;1.27;0.55;;;;;;;;;;4979857;28;20489;-83
2022/05/30 10:17:10;;;;;;;0.95;0.38;;;;;;;;;;4986469;28;20536;-89
2022/05/30 10:19:47;;;;;;;3.15;0.55;;;;;;;;;;4969600;28;20041;-89
2022/05/30 10:28:27;;;;;;;0.73;0.38;;;;;;;;;;4992147;28;20105;-88
2022/05/30 10:31:10;;;;;;;0.85;0.40;;;;;;;;;;4958432;28;20563;-85
2022/05/30 10:34:06;;;;;;;0.98;0.20;;;;;;;;;;4992003;28;20093;-83
2022/05/30 10:36:57;;;;;;;1.98;0.50;;;;;;;;;;4991947;28;20038;-87
2022/05/30 10:39:31;;;;;;;1.70;0.45;;;;;;;;;;4969557;28;20074;-85
2022/05/30 10:42:15;;;;;;;1.80;0.40;;;;;;;;;;4987719;28;20038;-86
2022/05/30 10:44:45;;;;;;;1.05;0.32;;;;;;;;;;4967983;28;20065;-87
2022/05/30 10:47:33;;;;;;;1.42;0.30;;;;;;;;;;4992613;28;20545;-81
2022/05/30 10:50:15;;;;;;;2.28;0.20;;;;;;;;;;4973558;28;21033;-84
2022/05/30 10:53:03;;;;;;;2.58;0.30;;;;;;;;;;4975937;28;20042;-84
2022/05/30 10:55:36;;;;;;;1.60;0.43;;;;;;;;;;4959682;28;20041;-82
2022/05/30 10:58:05;;;;;;;1.63;0.50;;;;;;;;;;4991272;28;20035;-84
2022/05/30 11:00:38;;;;;;;2.13;0.40;;;;;;;;;;4995477;28;20030;-83
2022/05/30 11:03:20;;;;;;;0.95;0.15;;;;;;;;;;4987642;28;20034;-85
2022/05/30 11:06:05;;;;;;;1.67;0.50;;;;;;;;;;4980518;28;20080;-85
2022/05/30 11:08:46;;;;;;;1.15;0.28;;;;;;;;;;4987682;28;20072;-84
2022/05/30 11:11:18;;;;;;;3.65;0.20;;;;;;;;;;4990246;28;20022;-84
2022/05/30 11:13:51;;;;;;;0.93;0.22;;;;;;;;;;4977356;28;20066;-85
2022/05/30 11:16:35;;;;;;;1.95;0.40;;;;;;;;;;4996524;28;20100;-84
2022/05/30 11:19:07;;;;;;;2.28;0.38;;;;;;;;;;4985283;28;20042;-84
2022/05/30 11:21:37;;;;;;;1.10;0.40;;;;;;;;;;4986696;28;20050;-83
2022/05/30 11:24:04;;;;;;;2.63;0.52;;;;;;;;;;4985126;28;20046;-83
2022/05/30 11:27:10;;;;;;;1.02;0.28;;;;;;;;;;4995047;28;20051;-83
2022/05/30 11:29:53;;;;;;;1.05;0.30;;;;;;;;;;4973401;28;20047;-84
2022/05/30 11:32:52;;;;;;;2.75;0.63;;;;;;;;;;5003595;28;20042;-82
2022/05/30 11:35:21;;;;;;;0.90;0.30;;;;;;;;;;4967548;28;20050;-84
2022/05/30 11:37:59;;;;;;;2.83;0.50;;;;;;;;;;4994142;28;20030;-84
2022/05/30 11:40:56;;;;;;;1.77;0.38;;;;;;;;;;4996064;28;20090;-83
2022/05/30 11:43:59;;;;;;;1.27;0.30;;;;;;;;;;4993937;28;20572;-81
2022/05/30 11:46:50;;;;;;;1.33;0.35;;;;;;;;;;4993233;28;20038;-83
2022/05/30 11:49:59;;;;;;;1.10;0.40;;;;;;;;;;4996568;28;20040;-83
2022/05/30 11:52:43;;;;;;;1.35;0.45;;;;;;;;;;4993763;28;20041;-83
2022/05/30 11:55:26;;;;;;;1.10;0.43;;;;;;;;;;4986886;28;20038;-84
2022/05/30 11:58:02;;;;;;;2.33;0.30;;;;;;;;;;4976846;28;20038;-82
2022/05/30 12:00:33;;;;;;;1.23;0.17;;;;;;;;;;5008306;28;20038;-83
2022/05/30 12:03:14;;;;;;;2.13;0.50;;;;;;;;;;4962284;28;20132;-82
2022/05/30 12:06:09;;;;;;;2.88;0.50;;;;;;;;;;4992930;28;20046;-82
2022/05/30 12:08:40;;;;;;;1.35;0.50;;;;;;;;;;4988909;28;20052;-84
2022/05/30 12:11:17;;;;;;;1.98;0.50;;;;;;;;;;4989752;28;20026;-82
2022/05/30 12:13:58;;;;;;;1.55;0.40;;;;;;;;;;4997445;28;23872;-83
2022/05/30 12:17:00;;;;;;;1.40;0.60;;;;;;;;;;4982905;28;20030;-81
2022/05/30 12:25:35;;;;;;;1.40;0.43;;;;;;;;;;4978242;28;20045;-82
2022/05/30 12:28:34;;;;;;;2.00;0.60;;;;;;;;;;4995790;28;20503;-84
2022/05/30 12:31:05;;;;;;;1.20;0.50;;;;;;;;;;4991632;28;20053;-84
2022/05/30 12:33:30;;;;;;;2.72;0.47;;;;;;;;;;4985101;28;20042;-84
2022/05/30 12:36:08;;;;;;;0.45;0.25;;;;;;;;;;4996681;28;20034;-82
2022/05/30 12:38:56;;;;;;;2.60;0.50;;;;;;;;;;4994621;28;20068;-84
2022/05/30 12:41:27;;;;;;;2.28;0.68;;;;;;;;;;4993503;28;20046;-84
2022/05/30 12:43:58;;;;;;;1.33;0.40;;;;;;;;;;4975040;28;20133;-84
2022/05/30 12:46:29;;;;;;;0.95;0.60;;;;;;;;;;4979465;28;20029;-84
2022/05/30 12:49:02;;;;;;;1.30;0.40;;;;;;;;;;4956089;28;20045;-82
2022/05/30 12:51:36;;;;;;;1.38;0.30;;;;;;;;;;4948249;28;20619;-83
2022/05/30 12:54:02;;;;;;;0.65;0.30;;;;;;;;;;4999150;28;20717;-83
2022/05/30 12:56:39;;;;;;;1.63;0.40;;;;;;;;;;4993716;28;20084;-84
2022/05/30 12:59:11;;;;;;;1.83;0.32;;;;;;;;;;4993627;28;20038;-84
2022/05/30 13:01:45;;;;;;;1.95;0.50;;;;;;;;;;5007661;28;20136;-83
2022/05/30 13:04:16;;;;;;;0.68;0.30;;;;;;;;;;5008781;28;20046;-83
2022/05/30 13:06:44;;;;;;;1.90;0.40;;;;;;;;;;4994251;28;20034;-82
2022/05/30 13:09:15;;;;;;;1.58;0.40;;;;;;;;;;4982491;28;20588;-83
2022/05/30 13:11:53;;;;;;;1.20;0.40;;;;;;;;;;4980293;28;20038;-83
2022/05/30 13:14:34;;;;;;;1.75;0.40;;;;;;;;;;4963975;28;20325;-84
2022/05/30 13:17:23;;;;;;;0.73;0.30;;;;;;;;;;4995451;28;20375;-83
2022/05/30 13:19:54;;;;;;;1.33;0.32;;;;;;;;;;4976969;28;20110;-84
2022/05/30 13:22:28;;;;;;;1.35;0.30;;;;;;;;;;4995908;28;20873;-83
2022/05/30 13:24:53;;;;;;;2.47;0.47;;;;;;;;;;5001157;28;20038;-85
2022/05/30 13:27:19;;;;;;;3.50;0.80;;;;;;;;;;4964041;28;20481;-85
2022/05/30 13:29:44;;;;;;;3.53;1.10;;;;;;;;;;4960248;28;20034;-84
2022/05/30 13:32:13;;;;;;;0.95;0.40;;;;;;;;;;4987726;28;20489;-84
2022/05/30 13:35:09;;;;;;;2.05;0.75;;;;;;;;;;4985455;28;20176;-84
2022/05/30 13:37:37;;;;;;;3.40;0.65;;;;;;;;;;4975028;28;20038;-84
2022/05/30 13:40:18;;;;;;;1.55;0.45;;;;;;;;;;4976217;28;20406;-84
2022/05/30 13:42:52;;;;;;;1.85;0.50;;;;;;;;;;4989529;28;20038;-85
2022/05/30 13:45:23;;;;;;;0.93;0.40;;;;;;;;;;4990129;28;20030;-85
2022/05/30 13:47:48;;;;;;;1.08;0.30;;;;;;;;;;4996705;28;20502;-84
2022/05/30 13:50:17;;;;;;;1.60;0.30;;;;;;;;;;4992055;28;20073;-84
2022/05/30 13:52:43;;;;;;;1.38;0.40;;;;;;;;;;4989579;28;20068;-84
2022/05/30 13:55:20;;;;;;;0.80;0.40;;;;;;;;;;4989213;28;20065;-84
2022/05/30 13:57:45;;;;;;;1.20;0.35;;;;;;;;;;4975307;28;20038;-84
2022/05/30 14:00:18;;;;;;;0.40;0.30;;;;;;;;;;4989951;28;20050;-83
2022/05/30 14:02:47;;;;;;;1.60;0.40;;;;;;;;;;4984772;28;20044;-83
2022/05/30 14:05:28;;;;;;;0.93;0.32;;;;;;;;;;4981170;28;20022;-84
2022/05/30 14:07:55;;;;;;;1.02;0.40;;;;;;;;;;4977623;28;20031;-84
2022/05/30 14:10:23;;;;;;;3.33;0.50;;;;;;;;;;4993615;28;20036;-85
2022/05/30 14:12:49;;;;;;;1.13;0.40;;;;;;;;;;4976651;28;20038;-84
2022/05/30 14:15:21;;;;;;;0.40;0.20;;;;;;;;;;4958499;28;20046;-84
2022/05/30 14:17:48;;;;;;;1.08;0.40;;;;;;;;;;4991134;28;20034;-84
2022/05/30 14:20:19;;;;;;;1.35;0.47;;;;;;;;;;4993337;28;20034;-85
2022/05/30 14:22:58;;;;;;;1.67;1.00;;;;;;;;;;4990272;28;20183;-84
2022/05/30 14:25:29;;;;;;;1.33;0.45;;;;;;;;;;4957427;28;20049;-85
2022/05/30 14:27:55;;;;;;;2.95;0.52;;;;;;;;;;4992794;28;20069;-86
2022/05/30 14:30:26;;;;;;;1.67;0.60;;;;;;;;;;4980076;28;20193;-84
2022/05/30 14:33:06;;;;;;;1.25;0.40;;;;;;;;;;4992022;28;20037;-85
2022/05/30 14:35:32;;;;;;;1.05;0.32;;;;;;;;;;4985264;28;20054;-84
2022/05/30 14:37:57;;;;;;;0.60;0.28;;;;;;;;;;4981959;28;20041;-85
2022/05/30 14:40:22;;;;;;;0.83;0.37;;;;;;;;;;4997318;28;20042;-85
2022/05/30 14:42:50;;;;;;;0.83;0.40;;;;;;;;;;4999129;28;20117;-85
2022/05/30 14:45:25;;;;;;;2.75;0.55;;;;;;;;;;4995917;28;20343;-85
2022/05/30 14:47:54;;;;;;;2.35;0.70;;;;;;;;;;4998820;28;20034;-85
2022/05/30 14:50:26;;;;;;;0.60;0.30;;;;;;;;;;4986569;28;20038;-84
2022/05/30 14:52:55;;;;;;;0.90;0.40;;;;;;;;;;4981953;28;20238;-85
2022/05/30 14:55:45;;;;;;;1.45;0.50;;;;;;;;;;4964626;28;20034;-84
2022/05/30 14:58:23;;;;;;;1.77;0.47;;;;;;;;;;4979808;28;20049;-84
2022/05/30 15:00:59;;;;;;;2.17;0.80;;;;;;;;;;4995901;28;20038;-85
2022/05/30 15:06:11;;;;;;;1.58;0.45;;;;;;;;;;4987349;28;20073;-86
2022/05/30 15:08:37;;;;;;;1.67;0.40;;;;;;;;;;4998269;28;20045;-85
2022/05/30 15:11:16;;;;;;;1.23;0.40;;;;;;;;;;4982029;28;20029;-84
2022/05/30 15:13:46;;;;;;;0.73;0.30;;;;;;;;;;4982861;28;20038;-82
2022/05/30 15:16:12;;;;;;;1.27;0.60;;;;;;;;;;4994391;28;20052;-82
2022/05/30 15:18:58;;;;;;;1.05;0.40;;;;;;;;;;4997407;28;20046;-87
2022/05/30 15:21:27;;;;;;;2.80;0.60;;;;;;;;;;4996756;28;20521;-84
2022/05/30 15:23:52;;;;;;;1.27;0.63;;;;;;;;;;4990290;28;20044;-84
2022/05/30 15:26:19;;;;;;;2.80;0.55;;;;;;;;;;4999878;28;20933;-85
2022/05/30 15:28:44;;;;;;;2.33;0.52;;;;;;;;;;5004441;28;20129;-84
2022/05/30 15:31:14;;;;;;;1.52;0.60;;;;;;;;;;4982355;28;20481;-89
2022/05/30 15:33:40;;;;;;;0.47;0.30;;;;;;;;;;5005537;28;20045;-86
2022/05/30 15:36:06;;;;;;;2.17;0.50;;;;;;;;;;4987134;28;20441;-85